Time;durP1;ratioP1;P1;durP2;ratioP2;P2;SDS_P1;SDS_P2;PMS_P1;PMS_P2;Temp;Humidity;BMP_temperature;BMP_pressure;BME280_temperature;BME280_humidity;BME280_pressure;Samples;Min_cycle;Max_cycle;Signal;HPM_P1;HPM_P2
2023/09/20 00:02:04;;;;;;;12.27;3.45;;;17.00;99.90;;;;;;6160827;23;20024;-86
2023/09/20 00:04:38;;;;;;;8.55;3.13;;;17.00;99.90;;;;;;6160378;23;20454;-86
2023/09/20 00:07:07;;;;;;;12.82;3.20;;;17.00;99.90;;;;;;6160642;23;20021;-87
2023/09/20 00:09:38;;;;;;;12.27;3.40;;;17.20;99.90;;;;;;6160256;23;20009;-85
2023/09/20 00:12:04;;;;;;;12.98;3.60;;;17.00;99.90;;;;;;6159199;23;20019;-86
2023/09/20 00:14:45;;;;;;;10.30;3.45;;;17.00;99.90;;;;;;6160057;23;20399;-86
2023/09/20 00:17:11;;;;;;;9.57;3.13;;;17.00;99.90;;;;;;6160383;23;20028;-86
2023/09/20 00:19:57;;;;;;;10.13;3.70;;;17.00;99.90;;;;;;6159306;23;20009;-86
2023/09/20 00:22:50;;;;;;;12.27;3.33;;;17.00;99.90;;;;;;6160070;23;20013;-86
2023/09/20 00:25:16;;;;;;;12.25;3.25;;;17.10;99.90;;;;;;6160006;23;20024;-86
2023/09/20 00:27:51;;;;;;;15.02;3.50;;;17.00;99.90;;;;;;6185413;23;20033;-86
2023/09/20 00:30:32;;;;;;;11.65;3.20;;;17.10;99.90;;;;;;6160304;23;20442;-86
2023/09/20 00:33:01;;;;;;;11.65;3.55;;;17.00;99.90;;;;;;6158504;23;20028;-86
2023/09/20 00:35:28;;;;;;;14.15;3.85;;;17.00;99.90;;;;;;6160539;23;20009;-86
2023/09/20 00:37:53;;;;;;;8.43;3.03;;;17.10;99.90;;;;;;6159596;23;20370;-86
2023/09/20 00:40:37;;;;;;;8.80;2.75;;;17.00;99.90;;;;;;6159147;23;20009;-86
2023/09/20 00:43:21;;;;;;;10.13;3.20;;;17.10;99.90;;;;;;6162054;23;20349;-86
2023/09/20 00:45:47;;;;;;;9.57;2.80;;;17.00;99.90;;;;;;6189088;23;20027;-86
2023/09/20 00:48:22;;;;;;;9.90;3.10;;;17.00;99.90;;;;;;6188166;23;20385;-86
2023/09/20 00:51:39;;;;;;;11.85;3.38;;;17.00;99.90;;;;;;6189960;23;20020;-86
2023/09/20 00:54:57;;;;;;;12.50;3.20;;;17.20;99.90;;;;;;6188207;23;20017;-87
2023/09/20 00:58:14;;;;;;;9.55;3.17;;;17.00;99.90;;;;;;6189684;23;20029;-87
2023/09/20 01:01:06;;;;;;;11.68;3.20;;;17.10;99.90;;;;;;6188517;23;20017;-87
2023/09/20 01:03:34;;;;;;;11.63;3.80;;;17.00;99.90;;;;;;6189448;23;20021;-86
2023/09/20 01:06:08;;;;;;;14.73;3.28;;;17.00;99.90;;;;;;6190720;23;20027;-86
2023/09/20 01:08:34;;;;;;;11.27;3.13;;;17.70;99.90;;;;;;6188118;23;20005;-86
2023/09/20 01:11:18;;;;;;;11.00;3.33;;;17.10;99.90;;;;;;6189507;23;20102;-86
2023/09/20 01:14:02;;;;;;;9.30;2.85;;;17.00;99.90;;;;;;6189168;23;20024;-86
2023/09/20 01:16:43;;;;;;;12.75;3.75;;;17.00;99.90;;;;;;6188808;23;20017;-86
2023/09/20 01:19:09;;;;;;;11.70;3.10;;;17.00;99.90;;;;;;6189328;23;20491;-86
2023/09/20 01:21:42;;;;;;;9.63;3.05;;;17.70;99.90;;;;;;6189489;23;20025;-86
2023/09/20 01:24:28;;;;;;;12.25;3.30;;;17.30;99.90;;;;;;6188306;23;20016;-86
2023/09/20 01:26:57;;;;;;;11.23;3.25;;;17.00;99.90;;;;;;6188132;23;20017;-85
2023/09/20 01:29:38;;;;;;;9.20;2.80;;;17.10;99.90;;;;;;6188139;23;20044;-86
2023/09/20 01:32:04;;;;;;;11.13;3.22;;;17.00;99.90;;;;;;6189182;23;20463;-86
2023/09/20 01:34:42;;;;;;;10.15;3.10;;;17.10;99.90;;;;;;6189487;23;20009;-86
2023/09/20 01:37:08;;;;;;;11.35;3.45;;;17.10;99.90;;;;;;6188459;23;20077;-86
2023/09/20 01:39:40;;;;;;;11.02;3.15;;;17.10;99.90;;;;;;6188928;23;20017;-87
2023/09/20 01:42:21;;;;;;;10.20;2.90;;;17.10;99.90;;;;;;6189234;23;20013;-86
2023/09/20 01:45:03;;;;;;;11.00;3.15;;;17.10;99.90;;;;;;6188381;23;20013;-86
2023/09/20 01:47:47;;;;;;;10.60;3.60;;;17.10;99.90;;;;;;6189259;23;20020;-87
2023/09/20 01:51:23;;;;;;;11.35;3.53;;;17.20;99.90;;;;;;6188443;23;20033;-86
2023/09/20 01:53:49;;;;;;;10.50;3.38;;;17.10;99.90;;;;;;6215272;23;20078;-86
2023/09/20 01:56:26;;;;;;;11.27;2.90;;;17.90;99.90;;;;;;6188832;23;20403;-86
2023/09/20 01:59:05;;;;;;;12.60;3.22;;;17.40;99.90;;;;;;6187663;23;20092;-86
2023/09/20 02:01:43;;;;;;;10.30;2.97;;;17.20;99.90;;;;;;6189739;23;20497;-86
2023/09/20 02:04:27;;;;;;;9.80;2.92;;;17.30;99.90;;;;;;6194824;23;20481;-87
2023/09/20 02:07:13;;;;;;;;;;;17.20;99.90;;;;;;6189106;23;20397;-87
2023/09/20 02:09:57;;;;;;;12.75;3.15;;;17.20;99.90;;;;;;6188700;23;19915;-86
2023/09/20 02:12:29;;;;;;;11.07;3.00;;;17.30;99.90;;;;;;6188469;23;20012;-86
2023/09/20 02:14:55;;;;;;;11.25;2.95;;;17.40;99.90;;;;;;6188558;23;20020;-86
2023/09/20 02:17:26;;;;;;;11.27;3.17;;;17.30;99.90;;;;;;6215451;23;20062;-86
2023/09/20 02:19:51;;;;;;;12.40;3.05;;;17.20;99.90;;;;;;6187737;23;20463;-86
2023/09/20 02:22:32;;;;;;;10.13;3.08;;;17.20;99.90;;;;;;6188905;23;20040;-86
2023/09/20 02:24:58;;;;;;;11.85;3.40;;;17.20;99.90;;;;;;6188627;23;20019;-89
2023/09/20 02:27:43;;;;;;;9.15;2.90;;;17.20;99.90;;;;;;6187833;23;20091;-86
2023/09/20 02:30:28;;;;;;;12.48;3.28;;;17.20;99.90;;;;;;6188629;23;20410;-86
2023/09/20 02:33:07;;;;;;;11.07;3.33;;;17.20;99.90;;;;;;6187587;23;20021;-86
2023/09/20 02:35:34;;;;;;;9.85;2.90;;;17.20;99.90;;;;;;6188851;23;20024;-86
2023/09/20 02:38:18;;;;;;;10.15;2.92;;;17.90;99.90;;;;;;6188640;23;20013;-86
2023/09/20 02:40:47;;;;;;;11.27;3.00;;;17.20;99.90;;;;;;6187820;23;20059;-87
2023/09/20 02:43:21;;;;;;;9.20;2.95;;;17.20;99.90;;;;;;6215276;23;20187;-86
2023/09/20 02:45:59;;;;;;;10.85;2.97;;;18.00;99.90;;;;;;6188565;23;20024;-87
2023/09/20 02:48:26;;;;;;;10.70;2.92;;;17.20;99.90;;;;;;6186764;23;20020;-86
2023/09/20 02:50:59;;;;;;;10.57;3.20;;;17.20;99.90;;;;;;6188678;23;20039;-86
2023/09/20 02:53:33;;;;;;;11.18;3.22;;;17.10;99.90;;;;;;6188103;23;20071;-86
2023/09/20 02:56:05;;;;;;;10.55;2.90;;;17.10;99.90;;;;;;6187351;23;20059;-86
2023/09/20 03:01:10;;;;;;;11.57;3.25;;;17.10;99.90;;;;;;6214255;23;20315;-85
2023/09/20 03:03:40;;;;;;;9.70;3.15;;;17.20;99.90;;;;;;6188274;23;20021;-86
2023/09/20 03:06:29;;;;;;;12.25;3.08;;;17.40;99.90;;;;;;6188401;23;20013;-85
2023/09/20 03:08:55;;;;;;;10.02;3.00;;;17.00;99.90;;;;;;6174860;23;20024;-86
2023/09/20 03:11:22;;;;;;;11.63;3.05;;;17.00;99.90;;;;;;6187944;23;20449;-86
2023/09/20 03:14:03;;;;;;;12.32;3.30;;;17.10;99.90;;;;;;6188110;23;20020;-86
2023/09/20 03:16:29;;;;;;;11.88;3.17;;;17.00;99.90;;;;;;6187617;23;20472;-86
2023/09/20 03:18:55;;;;;;;11.23;3.13;;;17.70;99.90;;;;;;6188396;23;20020;-86
2023/09/20 03:21:21;;;;;;;9.63;2.80;;;17.00;99.90;;;;;;6188322;23;20016;-86
2023/09/20 03:24:08;;;;;;;10.43;3.10;;;17.60;99.90;;;;;;6187453;23;20043;-86
2023/09/20 03:26:35;;;;;;;10.93;3.15;;;17.00;99.90;;;;;;6187808;23;20023;-86
2023/09/20 03:29:17;;;;;;;11.80;3.42;;;17.00;99.90;;;;;;6187852;23;20015;-86
2023/09/20 03:31:44;;;;;;;13.40;3.50;;;16.90;99.90;;;;;;6188109;23;20023;-86
2023/09/20 03:34:26;;;;;;;10.15;3.17;;;16.90;99.90;;;;;;6188221;23;20111;-86
2023/09/20 03:36:53;;;;;;;10.27;3.20;;;16.90;99.90;;;;;;6187241;23;20087;-86
2023/09/20 03:39:24;;;;;;;10.18;3.10;;;16.90;99.90;;;;;;6188508;23;20023;-85
2023/09/20 03:42:11;;;;;;;12.80;3.45;;;16.90;99.90;;;;;;6188119;23;20044;-85
2023/09/20 03:44:45;;;;;;;10.05;3.20;;;16.90;99.90;;;;;;6186527;23;20024;-86
2023/09/20 03:47:14;;;;;;;10.32;3.50;;;16.80;99.90;;;;;;6188486;23;20046;-86
2023/09/20 03:49:40;;;;;;;12.52;3.35;;;16.80;99.90;;;;;;6187448;23;20024;-86
2023/09/20 03:52:06;;;;;;;10.00;3.15;;;16.80;99.90;;;;;;6188023;23;20020;-86
2023/09/20 03:54:32;;;;;;;12.88;3.50;;;17.00;99.90;;;;;;6188407;23;20013;-86
2023/09/20 03:57:15;;;;;;;12.75;3.70;;;16.60;99.90;;;;;;6186638;23;20071;-86
2023/09/20 03:59:41;;;;;;;10.70;3.20;;;16.50;99.90;;;;;;6187384;23;20024;-86
2023/09/20 04:02:08;;;;;;;11.18;2.85;;;16.80;99.90;;;;;;6187882;23;20013;-86
2023/09/20 04:04:53;;;;;;;14.15;3.25;;;17.20;99.90;;;;;;6186551;23;20071;-86
2023/09/20 04:07:34;;;;;;;9.55;3.20;;;16.40;99.90;;;;;;6187942;23;20023;-86
2023/09/20 04:10:16;;;;;;;11.82;3.25;;;16.30;99.90;;;;;;6188183;23;20099;-86
2023/09/20 04:12:42;;;;;;;10.93;3.65;;;17.30;99.90;;;;;;6187772;23;20009;-85
2023/09/20 04:15:08;;;;;;;11.27;3.33;;;16.20;99.90;;;;;;6189941;23;20103;-86
2023/09/20 04:17:52;;;;;;;11.18;3.10;;;16.20;99.90;;;;;;6189622;23;20013;-85
2023/09/20 04:20:27;;;;;;;11.20;3.25;;;16.10;99.90;;;;;;6190193;23;20445;-85
2023/09/20 04:22:53;;;;;;;10.13;3.25;;;16.00;99.90;;;;;;6190037;23;20023;-85
2023/09/20 04:25:24;;;;;;;9.77;3.25;;;15.90;99.90;;;;;;6189690;23;20016;-85
2023/09/20 04:28:12;;;;;;;9.93;3.10;;;16.80;99.90;;;;;;6190178;23;20142;-86
2023/09/20 04:30:57;;;;;;;10.80;3.15;;;15.80;99.90;;;;;;6189579;23;20353;-85
2023/09/20 04:33:22;;;;;;;11.20;3.10;;;15.80;99.90;;;;;;6189454;23;20083;-86
2023/09/20 04:36:04;;;;;;;11.90;3.30;;;15.80;99.90;;;;;;6190188;23;20445;-85
2023/09/20 04:38:42;;;;;;;12.95;3.20;;;15.70;99.90;;;;;;6190138;23;20468;-85
2023/09/20 04:41:19;;;;;;;12.45;3.50;;;16.60;99.90;;;;;;6189458;23;20013;-85
2023/09/20 04:43:45;;;;;;;10.73;3.55;;;16.50;99.90;;;;;;6189537;23;20083;-85
2023/09/20 04:46:29;;;;;;;9.80;3.10;;;15.60;99.90;;;;;;6188875;23;20016;-85
2023/09/20 04:48:55;;;;;;;10.57;3.30;;;15.60;99.90;;;;;;6189777;23;20016;-85
2023/09/20 04:51:22;;;;;;;9.40;3.17;;;15.60;99.90;;;;;;6216116;23;20017;-85
2023/09/20 04:54:03;;;;;;;11.35;3.25;;;16.30;99.90;;;;;;6188671;23;20012;-85
2023/09/20 04:56:47;;;;;;;9.55;3.03;;;15.50;99.90;;;;;;6189642;23;20016;-86
2023/09/20 04:59:16;;;;;;;9.55;2.90;;;15.50;99.90;;;;;;6188690;23;20020;-86
2023/09/20 05:05:25;;;;;;;9.40;2.90;;;15.50;99.90;;;;;;6210235;23;20493;-86
2023/09/20 05:07:57;;;;;;;9.63;3.00;;;15.50;99.90;;;;;;6190050;23;20013;-85
2023/09/20 05:10:29;;;;;;;8.55;2.72;;;15.60;99.90;;;;;;6189929;23;20087;-85
2023/09/20 05:13:09;;;;;;;10.30;2.97;;;16.60;99.90;;;;;;6190004;23;20476;-85
2023/09/20 05:15:41;;;;;;;12.35;3.30;;;16.30;99.90;;;;;;6187820;23;20111;-86
2023/09/20 05:18:13;;;;;;;9.80;3.05;;;15.50;99.90;;;;;;6189964;23;20357;-86
2023/09/20 05:20:45;;;;;;;10.55;3.17;;;15.50;99.90;;;;;;6189699;23;20013;-88
2023/09/20 05:23:23;;;;;;;10.88;3.80;;;15.50;99.90;;;;;;6189908;23;20017;-86
2023/09/20 05:25:58;;;;;;;11.88;3.10;;;16.50;99.90;;;;;;6189504;23;20024;-85
2023/09/20 05:28:38;;;;;;;10.02;2.88;;;15.50;99.90;;;;;;6189277;23;20099;-86
2023/09/20 05:31:05;;;;;;;9.52;2.90;;;15.50;99.90;;;;;;6190425;23;20012;-85
2023/09/20 05:33:49;;;;;;;13.65;3.00;;;15.50;99.90;;;;;;6189467;23;20031;-87
2023/09/20 05:36:14;;;;;;;11.13;3.30;;;15.50;99.90;;;;;;6188551;23;20013;-84
2023/09/20 05:38:58;;;;;;;9.50;3.33;;;16.20;99.90;;;;;;6188701;23;20021;-84
2023/09/20 05:41:25;;;;;;;10.45;3.20;;;15.60;99.90;;;;;;6188968;23;20024;-84
2023/09/20 05:43:51;;;;;;;10.02;2.90;;;15.60;99.90;;;;;;6187548;23;20027;-82
2023/09/20 05:46:17;;;;;;;9.52;2.70;;;15.80;99.90;;;;;;6188593;23;20016;-82
2023/09/20 05:48:55;;;;;;;11.98;3.60;;;15.60;99.90;;;;;;6188424;23;20319;-82
2023/09/20 05:51:21;;;;;;;12.43;2.60;;;15.70;99.90;;;;;;6188052;23;20027;-83
2023/09/20 05:54:04;;;;;;;9.38;2.80;;;15.80;99.90;;;;;;6188519;23;20013;-83
2023/09/20 05:56:29;;;;;;;9.05;2.90;;;15.80;99.90;;;;;;6187998;23;20318;-84
2023/09/20 05:59:07;;;;;;;10.88;2.80;;;16.20;99.90;;;;;;6188508;23;20111;-83
2023/09/20 06:01:33;;;;;;;9.52;3.13;;;15.80;99.90;;;;;;6188853;23;20027;-84
2023/09/20 06:04:18;;;;;;;12.20;3.10;;;15.90;99.90;;;;;;6187869;23;20017;-83
2023/09/20 06:06:54;;;;;;;9.70;2.80;;;15.90;99.90;;;;;;6188677;23;20017;-83
2023/09/20 06:09:19;;;;;;;12.02;3.33;;;16.60;99.90;;;;;;6189082;23;20016;-83
2023/09/20 06:11:45;;;;;;;8.80;2.75;;;16.00;99.90;;;;;;6187578;23;20079;-83
2023/09/20 06:14:14;;;;;;;9.00;2.90;;;16.00;99.90;;;;;;6189318;23;20009;-83
2023/09/20 06:16:45;;;;;;;10.13;3.00;;;16.00;99.90;;;;;;6188307;23;20024;-83
2023/09/20 06:19:11;;;;;;;10.52;2.97;;;16.20;99.90;;;;;;6187002;23;20503;-82
2023/09/20 06:21:59;;;;;;;10.40;2.95;;;16.10;99.90;;;;;;6188516;23;20021;-84
2023/09/20 06:24:27;;;;;;;10.70;2.70;;;16.20;99.90;;;;;;6187675;23;20017;-82
2023/09/20 06:26:53;;;;;;;8.85;3.03;;;16.20;99.90;;;;;;6185668;23;20028;-82
2023/09/20 06:29:19;;;;;;;10.25;3.20;;;16.30;99.90;;;;;;6187569;23;20012;-82
2023/09/20 06:31:45;;;;;;;10.43;3.00;;;16.30;99.90;;;;;;6186980;23;20497;-83
2023/09/20 06:34:17;;;;;;;10.13;2.80;;;16.40;99.90;;;;;;6188346;23;20032;-84
2023/09/20 06:36:43;;;;;;;10.73;3.22;;;16.40;99.90;;;;;;6187174;23;20017;-83
2023/09/20 06:39:09;;;;;;;9.27;3.22;;;16.50;99.90;;;;;;6187539;23;20393;-82
2023/09/20 06:41:40;;;;;;;10.07;3.22;;;16.50;99.90;;;;;;6187481;23;20013;-82
2023/09/20 06:44:06;;;;;;;10.90;3.15;;;16.50;99.90;;;;;;6188330;23;20008;-82
2023/09/20 06:46:32;;;;;;;10.30;3.00;;;16.70;99.90;;;;;;6187323;23;20166;-83
2023/09/20 06:48:57;;;;;;;10.13;2.53;;;16.70;99.90;;;;;;6188033;23;20456;-82
2023/09/20 06:51:23;;;;;;;9.20;2.92;;;17.00;99.90;;;;;;6188398;23;20016;-82
2023/09/20 06:53:49;;;;;;;9.90;3.25;;;16.80;99.90;;;;;;6214156;23;20078;-82
2023/09/20 06:56:14;;;;;;;10.07;3.13;;;16.90;99.90;;;;;;6188146;23;20023;-83
2023/09/20 06:58:40;;;;;;;9.52;3.33;;;17.00;99.90;;;;;;6187511;23;20342;-84
2023/09/20 07:01:06;;;;;;;11.57;3.40;;;17.00;99.90;;;;;;6187251;23;20020;-82
2023/09/20 07:03:32;;;;;;;11.57;3.20;;;17.10;99.90;;;;;;6187071;23;20016;-82
2023/09/20 07:05:58;;;;;;;14.70;3.58;;;17.10;99.90;;;;;;6187843;23;20103;-82
2023/09/20 07:08:23;;;;;;;11.48;3.58;;;17.20;99.90;;;;;;6187737;23;20513;-83
2023/09/20 07:10:50;;;;;;;9.75;3.28;;;17.20;99.90;;;;;;6187637;23;20393;-83
2023/09/20 07:13:34;;;;;;;12.18;3.20;;;17.20;99.90;;;;;;6186971;23;20067;-83
2023/09/20 07:16:15;;;;;;;10.43;3.05;;;17.80;99.90;;;;;;6188054;23;20095;-83
2023/09/20 07:18:43;;;;;;;10.85;3.40;;;17.30;99.90;;;;;;6187701;23;20476;-83
2023/09/20 07:21:27;;;;;;;11.20;3.75;;;17.30;99.90;;;;;;6187314;23;20017;-82
2023/09/20 07:23:53;;;;;;;11.40;3.08;;;17.30;99.90;;;;;;6187793;23;20036;-82
2023/09/20 07:26:39;;;;;;;11.70;3.10;;;17.30;99.90;;;;;;6187681;23;20446;-82
2023/09/20 07:29:05;;;;;;;9.27;3.38;;;17.00;99.90;;;;;;6185750;23;20012;-84
2023/09/20 07:31:51;;;;;;;10.57;3.50;;;17.80;99.90;;;;;;6188335;23;20020;-82
2023/09/20 07:34:20;;;;;;;13.48;3.60;;;17.30;99.90;;;;;;6187981;23;20013;-82
2023/09/20 07:37:00;;;;;;;10.43;3.15;;;17.30;99.90;;;;;;6174221;23;20433;-82
2023/09/20 07:39:26;;;;;;;10.77;3.55;;;17.30;99.90;;;;;;6188149;23;20021;-82
2023/09/20 07:41:52;;;;;;;10.38;3.00;;;17.40;99.90;;;;;;6186438;23;20460;-81
2023/09/20 07:44:23;;;;;;;11.68;3.70;;;17.50;99.90;;;;;;6186519;23;20017;-82
2023/09/20 07:46:52;;;;;;;12.25;4.15;;;17.60;99.90;;;;;;6187088;23;20044;-82
2023/09/20 07:49:21;;;;;;;9.75;2.90;;;17.70;99.90;;;;;;6187823;23;20012;-82
2023/09/20 07:51:50;;;;;;;10.98;3.30;;;17.90;99.90;;;;;;6189747;23;20012;-83
2023/09/20 07:54:17;;;;;;;10.75;3.42;;;18.00;99.90;;;;;;6189761;23;20099;-81
2023/09/20 07:56:43;;;;;;;10.15;3.03;;;18.10;99.90;;;;;;6186804;23;20028;-81
2023/09/20 07:59:16;;;;;;;12.75;4.10;;;18.30;99.90;;;;;;6188987;23;20050;-81
2023/09/20 08:01:43;;;;;;;12.57;4.10;;;18.30;99.90;;;;;;6194999;23;20012;-83
2023/09/20 08:04:10;;;;;;;11.57;3.97;;;18.50;99.90;;;;;;6188245;23;20020;-83
2023/09/20 08:06:36;;;;;;;13.23;3.83;;;18.90;99.90;;;;;;6189624;23;20055;-82
2023/09/20 08:09:04;;;;;;;11.25;3.60;;;18.70;99.90;;;;;;6185987;23;20095;-83
2023/09/20 08:11:31;;;;;;;10.18;3.08;;;18.90;99.90;;;;;;6188458;23;20012;-82
2023/09/20 08:13:59;;;;;;;10.57;3.60;;;19.00;99.90;;;;;;6189329;23;20452;-82
2023/09/20 08:16:42;;;;;;;10.32;3.10;;;19.10;99.90;;;;;;6190008;23;20017;-81
2023/09/20 08:22:05;;;;;;;9.40;3.00;;;19.40;99.90;;;;;;6146056;23;20076;-82
2023/09/20 09:00:54;;;;;;;9.93;2.80;;;19.20;99.90;;;;;;6188315;23;20068;-82
2023/09/20 09:03:21;;;;;;;10.27;2.78;;;19.20;99.90;;;;;;6189601;23;20012;-82
2023/09/20 09:05:47;;;;;;;9.65;2.65;;;19.10;99.90;;;;;;6189151;23;20027;-83
2023/09/20 09:08:13;;;;;;;10.43;2.83;;;19.20;99.90;;;;;;6188008;23;20013;-83
2023/09/20 09:10:39;;;;;;;11.25;2.55;;;19.30;99.90;;;;;;6188935;23;20333;-82
2023/09/20 09:13:07;;;;;;;10.82;3.30;;;19.30;99.90;;;;;;6187948;23;20457;-83
2023/09/20 09:15:32;;;;;;;12.15;3.20;;;19.40;99.90;;;;;;6189283;23;20373;-85
2023/09/20 09:17:58;;;;;;;10.23;3.30;;;19.50;99.90;;;;;;6188836;23;20095;-84
2023/09/20 09:20:42;;;;;;;8.35;2.75;;;19.50;99.90;;;;;;6188511;23;20012;-84
2023/09/20 09:23:33;;;;;;;10.93;2.60;;;19.50;99.90;;;;;;6188811;23;20043;-86
2023/09/20 09:26:02;;;;;;;;;;;19.60;99.90;;;;;;6188471;23;20096;-86
2023/09/20 09:28:30;;;;;;;8.60;2.58;;;19.50;99.90;;;;;;6187695;23;19958;-86
2023/09/20 09:30:55;;;;;;;7.57;2.50;;;19.50;99.90;;;;;;6188868;23;20067;-86
2023/09/20 09:33:23;;;;;;;8.80;2.53;;;19.50;99.90;;;;;;6189347;23;20449;-86
2023/09/20 09:36:14;;;;;;;10.80;2.67;;;19.40;99.90;;;;;;6188757;23;20016;-95
2023/09/20 09:39:19;;;;;;;8.25;2.50;;;19.40;99.90;;;;;;6054464;23;20027;-81
2023/09/20 09:41:52;;;;;;;8.45;2.70;;;19.30;99.90;;;;;;6187513;23;20449;-79
2023/09/20 09:44:19;;;;;;;9.40;2.60;;;19.30;99.90;;;;;;6188201;23;20083;-82
2023/09/20 09:46:44;;;;;;;8.90;2.83;;;19.40;99.90;;;;;;6188898;23;20021;-83
2023/09/20 09:49:27;;;;;;;8.48;2.50;;;19.30;99.90;;;;;;6187120;23;20023;-84
2023/09/20 09:51:57;;;;;;;8.77;2.83;;;19.20;99.90;;;;;;6211850;23;20021;-86
2023/09/20 09:54:39;;;;;;;10.32;2.85;;;18.90;99.90;;;;;;6187449;23;20027;-86
2023/09/20 09:57:11;;;;;;;9.27;2.90;;;18.50;99.90;;;;;;6187884;23;20023;-85
2023/09/20 09:59:39;;;;;;;8.10;2.58;;;18.90;99.90;;;;;;6188730;23;20019;-86
2023/09/20 10:02:19;;;;;;;8.15;2.92;;;18.80;99.90;;;;;;6188770;23;20020;-86
2023/09/20 10:05:01;;;;;;;7.95;2.70;;;18.80;99.90;;;;;;6188840;23;20020;-86
2023/09/20 10:07:40;;;;;;;8.40;2.60;;;18.90;99.90;;;;;;6188498;23;20456;-82
2023/09/20 10:10:13;;;;;;;9.20;2.50;;;19.00;99.90;;;;;;6214412;23;20040;-81
2023/09/20 10:12:45;;;;;;;10.20;2.58;;;19.10;99.90;;;;;;6188333;23;20016;-85
2023/09/20 10:15:14;;;;;;;9.90;2.60;;;19.10;99.90;;;;;;6184233;23;20016;-83
2023/09/20 10:17:50;;;;;;;8.30;2.65;;;19.20;99.90;;;;;;6187791;23;20042;-83
2023/09/20 10:20:16;;;;;;;9.88;2.70;;;19.40;99.90;;;;;;6189047;23;20016;-85
2023/09/20 10:22:45;;;;;;;9.57;2.92;;;19.40;99.90;;;;;;6188282;23;20016;-82
2023/09/20 10:25:34;;;;;;;10.15;3.20;;;19.50;99.90;;;;;;6187691;23;20024;-84
2023/09/20 10:28:08;;;;;;;11.73;2.80;;;19.50;99.90;;;;;;6188671;23;20016;-85
2023/09/20 10:30:57;;;;;;;7.35;2.50;;;19.60;99.90;;;;;;6187605;23;20441;-84
2023/09/20 10:33:47;;;;;;;8.20;2.30;;;19.70;99.90;;;;;;6188824;23;20019;-84
2023/09/20 10:36:34;;;;;;;7.72;2.45;;;19.80;99.90;;;;;;6188802;23;20013;-84
2023/09/20 10:39:17;;;;;;;8.68;2.90;;;19.90;99.90;;;;;;6187790;23;20059;-85
2023/09/20 10:41:44;;;;;;;;;;;19.90;99.90;;;;;;6188505;23;20024;-85
2023/09/20 10:44:31;;;;;;;9.88;2.80;;;19.80;99.90;;;;;;6188208;23;19915;-85
2023/09/20 10:47:06;;;;;;;10.00;2.65;;;19.80;99.90;;;;;;6187950;23;20063;-84
2023/09/20 10:49:56;;;;;;;10.90;2.60;;;19.70;99.90;;;;;;6187858;23;20016;-84
2023/09/20 10:52:56;;;;;;;8.57;2.85;;;19.60;99.90;;;;;;6186788;23;20019;-85
2023/09/20 10:56:37;;;;;;;8.83;2.73;;;20.00;99.90;;;;;;6183757;23;20027;-85
2023/09/20 10:59:16;;;;;;;8.80;2.72;;;19.70;99.90;;;;;;6155611;23;20292;-86
2023/09/20 11:01:52;;;;;;;9.63;2.70;;;19.80;99.90;;;;;;6181091;23;20017;-84
2023/09/20 11:04:34;;;;;;;10.18;2.65;;;19.90;99.90;;;;;;6187999;23;20012;-85
2023/09/20 11:07:48;;;;;;;9.05;3.00;;;19.90;99.90;;;;;;6186619;23;20170;-85
2023/09/20 11:10:26;;;;;;;8.55;2.75;;;19.70;99.90;;;;;;6140072;23;20016;-83
2023/09/20 11:12:57;;;;;;;9.77;3.05;;;19.80;99.90;;;;;;6186919;23;20031;-84
2023/09/20 11:15:24;;;;;;;9.20;3.05;;;19.90;99.90;;;;;;6188443;23;20070;-85
2023/09/20 11:18:04;;;;;;;9.75;2.95;;;20.00;99.90;;;;;;6188505;23;20024;-84
2023/09/20 11:20:31;;;;;;;9.73;2.80;;;20.00;99.90;;;;;;6187564;23;20013;-85
2023/09/20 11:23:09;;;;;;;10.40;2.92;;;20.10;99.90;;;;;;6187883;23;20068;-86
2023/09/20 11:25:36;;;;;;;9.68;2.90;;;20.10;99.90;;;;;;6187963;23;20017;-86
2023/09/20 11:28:04;;;;;;;7.90;2.63;;;20.10;99.90;;;;;;6187353;23;20043;-84
2023/09/20 11:30:42;;;;;;;10.30;2.97;;;20.20;99.90;;;;;;6188399;23;20067;-82
2023/09/20 11:33:27;;;;;;;8.80;2.90;;;20.40;99.90;;;;;;6185769;23;20020;-86
2023/09/20 11:35:55;;;;;;;10.63;3.20;;;20.30;99.90;;;;;;6187093;23;20067;-83
2023/09/20 11:38:22;;;;;;;10.93;3.00;;;20.30;99.90;;;;;;6188570;23;20017;-81
2023/09/20 11:40:47;;;;;;;9.25;2.90;;;20.20;99.90;;;;;;6187117;23;20016;-81
2023/09/20 11:43:20;;;;;;;9.55;3.20;;;20.40;99.90;;;;;;6188329;23;20055;-81
2023/09/20 11:45:53;;;;;;;10.25;3.40;;;20.40;99.90;;;;;;6187736;23;20020;-81
2023/09/20 11:48:22;;;;;;;9.60;2.90;;;20.40;99.90;;;;;;6187489;23;20048;-82
2023/09/20 11:50:48;;;;;;;16.05;3.97;;;20.40;99.90;;;;;;6187918;23;20017;-81
2023/09/20 11:53:29;;;;;;;9.73;3.28;;;20.60;99.90;;;;;;6214775;23;20027;-82
2023/09/20 11:56:34;;;;;;;13.23;3.55;;;20.60;99.90;;;;;;6186949;23;20063;-82
2023/09/20 11:59:18;;;;;;;8.65;3.10;;;20.70;99.90;;;;;;6185766;23;20025;-82
2023/09/20 12:01:46;;;;;;;9.75;3.25;;;20.70;99.90;;;;;;6187585;23;20012;-82
2023/09/20 12:04:13;;;;;;;10.38;2.90;;;20.70;99.90;;;;;;6214287;23;20103;-82
2023/09/20 12:06:39;;;;;;;10.00;3.03;;;20.90;99.90;;;;;;6187736;23;20016;-82
2023/09/20 12:09:05;;;;;;;8.40;3.30;;;21.00;99.90;;;;;;6214181;23;20070;-83
2023/09/20 12:11:38;;;;;;;15.35;3.65;;;21.20;99.90;;;;;;6215030;23;20520;-82
2023/09/20 12:14:19;;;;;;;;;;;21.50;99.90;;;;;;6188613;23;20016;-82
2023/09/20 12:17:00;;;;;;;9.23;3.00;;;21.60;99.90;;;;;;6186893;23;20002;-82
2023/09/20 12:19:26;;;;;;;10.90;3.53;;;21.80;99.90;;;;;;6188083;23;20016;-83
2023/09/20 12:22:04;;;;;;;8.77;3.35;;;21.60;99.90;;;;;;6187458;23;20349;-82
2023/09/20 12:24:53;;;;;;;10.60;3.35;;;21.60;99.90;;;;;;6187301;23;20027;-82
2023/09/20 12:27:19;;;;;;;10.00;2.97;;;21.40;99.90;;;;;;6187976;23;20023;-82
2023/09/20 12:30:06;;;;;;;10.13;2.78;;;21.30;99.90;;;;;;6187549;23;20012;-83
2023/09/20 12:32:31;;;;;;;9.75;2.97;;;21.30;99.90;;;;;;6187888;23;20020;-81
2023/09/20 12:35:10;;;;;;;8.27;2.78;;;21.30;99.90;;;;;;6189206;23;20522;-81
2023/09/20 12:37:37;;;;;;;9.45;2.80;;;21.50;99.90;;;;;;6188703;23;20012;-82
2023/09/20 12:42:48;;;;;;;8.57;2.63;;;21.90;99.90;;;;;;6188531;23;20021;-81
2023/09/20 12:45:14;;;;;;;7.85;2.60;;;22.10;99.90;;;;;;6188778;23;20016;-83
2023/09/20 12:47:46;;;;;;;10.75;2.92;;;22.50;99.90;;;;;;6189609;23;20040;-83
2023/09/20 12:50:33;;;;;;;11.35;2.58;;;22.60;99.90;;;;;;6189641;23;20445;-82
2023/09/20 12:52:59;;;;;;;9.88;2.80;;;22.60;99.90;;;;;;6188777;23;20445;-82
2023/09/20 12:55:25;;;;;;;9.30;2.90;;;22.80;99.90;;;;;;6189231;23;20028;-83
2023/09/20 12:57:54;;;;;;;8.50;2.63;;;22.70;99.90;;;;;;6189187;23;20027;-84
2023/09/20 13:00:20;;;;;;;8.63;2.80;;;22.50;99.90;;;;;;6188427;23;20381;-83
2023/09/20 13:02:59;;;;;;;9.32;2.60;;;22.40;99.90;;;;;;6189178;23;20012;-83
2023/09/20 13:05:25;;;;;;;7.60;2.67;;;22.50;99.90;;;;;;6188490;23;20453;-82
2023/09/20 13:07:56;;;;;;;8.85;2.78;;;22.50;99.90;;;;;;6189966;23;20017;-83
2023/09/20 13:10:22;;;;;;;9.82;2.60;;;22.60;99.90;;;;;;6189584;23;20012;-81
2023/09/20 13:13:08;;;;;;;8.20;2.53;;;22.70;99.90;;;;;;6187944;23;20017;-82
2023/09/20 13:15:34;;;;;;;7.10;2.30;;;23.00;99.90;;;;;;6188615;23;20013;-83
2023/09/20 13:18:01;;;;;;;10.88;2.63;;;23.10;99.90;;;;;;6189756;23;20016;-82
2023/09/20 13:20:42;;;;;;;8.10;2.50;;;23.20;99.90;;;;;;6185587;23;20062;-83
2023/09/20 13:23:29;;;;;;;9.13;2.38;;;22.90;99.90;;;;;;6189103;23;20023;-82
2023/09/20 13:26:11;;;;;;;7.85;2.45;;;22.70;99.90;;;;;;6187719;23;20021;-82
2023/09/20 13:28:41;;;;;;;9.05;2.33;;;22.50;99.90;;;;;;6187132;23;20017;-83
2023/09/20 13:31:07;;;;;;;8.27;2.30;;;22.40;99.90;;;;;;6188560;23;20017;-83
2023/09/20 13:33:45;;;;;;;6.55;2.20;;;22.30;99.90;;;;;;6187310;23;20023;-83
2023/09/20 13:36:10;;;;;;;6.82;2.35;;;22.30;99.90;;;;;;6188466;23;20016;-83
2023/09/20 13:38:39;;;;;;;7.78;2.20;;;22.30;99.90;;;;;;6188308;23;20084;-83
2023/09/20 13:44:30;;;;;;;5.60;2.05;;;22.20;99.90;;;;;;6142749;23;20025;-83
2023/09/20 13:47:41;;;;;;;7.63;2.38;;;22.50;99.90;;;;;;6186682;23;20013;-83
2023/09/20 13:50:27;;;;;;;8.25;2.20;;;22.90;99.90;;;;;;6187536;23;20025;-83
2023/09/20 13:56:01;;;;;;;8.43;2.20;;;22.90;99.90;;;;;;6117337;23;20024;-83
2023/09/20 14:01:20;;;;;;;7.93;2.50;;;23.20;99.90;;;;;;6154449;23;20021;-84
2023/09/20 14:03:58;;;;;;;7.38;2.20;;;23.40;99.90;;;;;;6108853;23;20017;-83
2023/09/20 14:06:41;;;;;;;8.95;2.63;;;23.40;99.90;;;;;;6129779;23;20024;-83
2023/09/20 14:12:23;;;;;;;8.93;2.40;;;23.50;99.90;;;;;;6011566;23;20341;-83
2023/09/20 14:14:59;;;;;;;7.00;2.10;;;23.50;99.90;;;;;;6011919;23;20055;-83
2023/09/20 14:17:40;;;;;;;10.30;2.10;;;23.50;99.90;;;;;;6011085;23;20555;-84
2023/09/20 14:20:57;;;;;;;7.93;2.08;;;23.40;99.90;;;;;;6012021;23;20015;-83
2023/09/20 14:23:26;;;;;;;6.10;2.00;;;23.30;99.90;;;;;;5927352;24;20028;-82